sensor_id;sensor_type;location;lat;lon;timestamp;P1;durP1;ratioP1;P2;durP2;ratioP2
966;SDS011;56108;48.730;9.304;2023-12-07T00:01:42;7.03;;;6.10;;
966;SDS011;56108;48.730;9.304;2023-12-07T00:03:51;10.63;;;6.95;;
966;SDS011;56108;48.730;9.304;2023-12-07T00:05:59;10.65;;;6.80;;
966;SDS011;56108;48.730;9.304;2023-12-07T00:08:09;10.93;;;6.70;;
966;SDS011;56108;48.730;9.304;2023-12-07T00:10:17;9.70;;;7.35;;
966;SDS011;56108;48.730;9.304;2023-12-07T00:12:27;8.10;;;6.18;;
966;SDS011;56108;48.730;9.304;2023-12-07T00:14:36;9.80;;;6.57;;
966;SDS011;56108;48.730;9.304;2023-12-07T00:16:44;8.85;;;7.00;;
966;SDS011;56108;48.730;9.304;2023-12-07T00:18:54;10.02;;;6.32;;
966;SDS011;56108;48.730;9.304;2023-12-07T00:21:02;9.05;;;7.28;;
966;SDS011;56108;48.730;9.304;2023-12-07T00:23:12;7.85;;;6.50;;
966;SDS011;56108;48.730;9.304;2023-12-07T00:25:20;11.88;;;7.38;;
966;SDS011;56108;48.730;9.304;2023-12-07T00:27:40;9.98;;;7.80;;
966;SDS011;56108;48.730;9.304;2023-12-07T00:30:27;8.93;;;6.35;;
966;SDS011;56108;48.730;9.304;2023-12-07T00:32:36;9.13;;;7.15;;
966;SDS011;56108;48.730;9.304;2023-12-07T00:34:45;10.23;;;8.40;;
966;SDS011;56108;48.730;9.304;2023-12-07T00:36:54;9.38;;;6.30;;
966;SDS011;56108;48.730;9.304;2023-12-07T00:39:02;7.50;;;6.10;;
966;SDS011;56108;48.730;9.304;2023-12-07T00:41:11;7.80;;;6.72;;
966;SDS011;56108;48.730;9.304;2023-12-07T00:43:22;7.70;;;6.95;;
966;SDS011;56108;48.730;9.304;2023-12-07T00:45:31;11.38;;;6.80;;
966;SDS011;56108;48.730;9.304;2023-12-07T00:47:36;7.82;;;6.70;;
966;SDS011;56108;48.730;9.304;2023-12-07T00:49:45;10.45;;;8.40;;
966;SDS011;56108;48.730;9.304;2023-12-07T00:51:53;10.80;;;7.88;;
966;SDS011;56108;48.730;9.304;2023-12-07T00:54:01;10.38;;;8.05;;
966;SDS011;56108;48.730;9.304;2023-12-07T00:56:10;9.30;;;7.43;;
966;SDS011;56108;48.730;9.304;2023-12-07T00:58:18;9.57;;;7.78;;
966;SDS011;56108;48.730;9.304;2023-12-07T01:00:30;11.52;;;7.80;;
966;SDS011;56108;48.730;9.304;2023-12-07T01:02:38;15.98;;;9.07;;
966;SDS011;56108;48.730;9.304;2023-12-07T01:04:47;7.82;;;6.85;;
966;SDS011;56108;48.730;9.304;2023-12-07T01:06:55;8.10;;;6.70;;
966;SDS011;56108;48.730;9.304;2023-12-07T01:09:04;9.23;;;7.47;;
966;SDS011;56108;48.730;9.304;2023-12-07T01:11:09;12.30;;;7.25;;
966;SDS011;56108;48.730;9.304;2023-12-07T01:13:17;8.10;;;6.97;;
966;SDS011;56108;48.730;9.304;2023-12-07T01:15:29;8.38;;;7.50;;
966;SDS011;56108;48.730;9.304;2023-12-07T01:17:37;10.13;;;7.68;;
966;SDS011;56108;48.730;9.304;2023-12-07T01:19:45;9.93;;;7.20;;
966;SDS011;56108;48.730;9.304;2023-12-07T01:21:53;12.63;;;8.43;;
966;SDS011;56108;48.730;9.304;2023-12-07T01:24:02;9.30;;;7.65;;
966;SDS011;56108;48.730;9.304;2023-12-07T01:26:19;8.63;;;7.82;;
966;SDS011;56108;48.730;9.304;2023-12-07T01:28:27;9.57;;;6.78;;
966;SDS011;56108;48.730;9.304;2023-12-07T01:30:39;12.27;;;7.78;;
966;SDS011;56108;48.730;9.304;2023-12-07T01:32:47;8.68;;;7.50;;
966;SDS011;56108;48.730;9.304;2023-12-07T01:34:55;8.70;;;7.90;;
966;SDS011;56108;48.730;9.304;2023-12-07T01:37:01;9.00;;;7.35;;
966;SDS011;56108;48.730;9.304;2023-12-07T01:39:09;12.18;;;7.65;;
966;SDS011;56108;48.730;9.304;2023-12-07T01:41:19;10.75;;;7.65;;
966;SDS011;56108;48.730;9.304;2023-12-07T01:43:28;10.27;;;8.18;;
966;SDS011;56108;48.730;9.304;2023-12-07T01:45:39;8.70;;;6.90;;
966;SDS011;56108;48.730;9.304;2023-12-07T01:47:47;10.10;;;7.82;;
966;SDS011;56108;48.730;9.304;2023-12-07T01:49:58;9.55;;;7.00;;
966;SDS011;56108;48.730;9.304;2023-12-07T01:52:09;10.23;;;7.97;;
966;SDS011;56108;48.730;9.304;2023-12-07T01:54:19;9.23;;;6.55;;
966;SDS011;56108;48.730;9.304;2023-12-07T01:56:24;6.45;;;5.60;;
966;SDS011;56108;48.730;9.304;2023-12-07T01:58:34;7.72;;;6.50;;
966;SDS011;56108;48.730;9.304;2023-12-07T02:00:46;7.75;;;6.95;;
966;SDS011;56108;48.730;9.304;2023-12-07T02:02:55;10.40;;;7.55;;
966;SDS011;56108;48.730;9.304;2023-12-07T02:05:04;7.15;;;6.45;;
966;SDS011;56108;48.730;9.304;2023-12-07T02:07:13;10.88;;;7.55;;
966;SDS011;56108;48.730;9.304;2023-12-07T02:09:22;7.28;;;6.55;;
966;SDS011;56108;48.730;9.304;2023-12-07T02:11:30;8.93;;;6.93;;
966;SDS011;56108;48.730;9.304;2023-12-07T02:13:39;7.43;;;5.75;;
966;SDS011;56108;48.730;9.304;2023-12-07T02:15:51;9.38;;;6.65;;
966;SDS011;56108;48.730;9.304;2023-12-07T02:18:02;6.03;;;5.43;;
966;SDS011;56108;48.730;9.304;2023-12-07T02:20:18;9.05;;;7.80;;
966;SDS011;56108;48.730;9.304;2023-12-07T02:22:32;8.18;;;6.50;;
966;SDS011;56108;48.730;9.304;2023-12-07T02:24:47;7.80;;;6.97;;
966;SDS011;56108;48.730;9.304;2023-12-07T02:27:05;9.68;;;6.63;;
966;SDS011;56108;48.730;9.304;2023-12-07T02:29:13;8.73;;;6.60;;
966;SDS011;56108;48.730;9.304;2023-12-07T02:31:22;10.70;;;7.18;;
966;SDS011;56108;48.730;9.304;2023-12-07T02:33:31;9.73;;;6.63;;
966;SDS011;56108;48.730;9.304;2023-12-07T02:35:39;8.05;;;4.75;;
966;SDS011;56108;48.730;9.304;2023-12-07T02:37:50;9.05;;;6.97;;
966;SDS011;56108;48.730;9.304;2023-12-07T02:40:00;7.82;;;5.90;;
966;SDS011;56108;48.730;9.304;2023-12-07T02:42:08;6.70;;;6.00;;
966;SDS011;56108;48.730;9.304;2023-12-07T02:44:18;8.70;;;6.93;;
966;SDS011;56108;48.730;9.304;2023-12-07T02:46:26;8.93;;;6.47;;
966;SDS011;56108;48.730;9.304;2023-12-07T02:48:32;9.55;;;7.57;;
966;SDS011;56108;48.730;9.304;2023-12-07T02:50:41;6.20;;;5.60;;
966;SDS011;56108;48.730;9.304;2023-12-07T02:52:49;7.07;;;5.68;;
966;SDS011;56108;48.730;9.304;2023-12-07T02:54:59;10.05;;;6.25;;
966;SDS011;56108;48.730;9.304;2023-12-07T02:57:08;9.60;;;7.45;;
966;SDS011;56108;48.730;9.304;2023-12-07T02:59:17;9.38;;;6.75;;
966;SDS011;56108;48.730;9.304;2023-12-07T03:01:25;9.80;;;6.75;;
966;SDS011;56108;48.730;9.304;2023-12-07T03:03:33;9.00;;;6.00;;
966;SDS011;56108;48.730;9.304;2023-12-07T03:05:44;5.80;;;4.60;;
966;SDS011;56108;48.730;9.304;2023-12-07T03:07:52;11.10;;;6.80;;
966;SDS011;56108;48.730;9.304;2023-12-07T03:10:00;13.20;;;7.03;;
966;SDS011;56108;48.730;9.304;2023-12-07T03:12:12;9.55;;;6.65;;
966;SDS011;56108;48.730;9.304;2023-12-07T03:14:20;7.38;;;5.93;;
966;SDS011;56108;48.730;9.304;2023-12-07T03:16:29;12.57;;;7.10;;
966;SDS011;56108;48.730;9.304;2023-12-07T03:18:37;16.08;;;8.52;;
966;SDS011;56108;48.730;9.304;2023-12-07T03:20:46;7.97;;;7.18;;
966;SDS011;56108;48.730;9.304;2023-12-07T03:22:55;10.93;;;7.35;;
966;SDS011;56108;48.730;9.304;2023-12-07T03:25:04;7.93;;;5.95;;
966;SDS011;56108;48.730;9.304;2023-12-07T03:27:15;8.73;;;6.50;;
966;SDS011;56108;48.730;9.304;2023-12-07T03:29:24;12.13;;;6.50;;
966;SDS011;56108;48.730;9.304;2023-12-07T03:31:47;9.48;;;7.13;;
966;SDS011;56108;48.730;9.304;2023-12-07T03:33:56;11.13;;;6.72;;
966;SDS011;56108;48.730;9.304;2023-12-07T03:36:06;15.55;;;7.13;;
966;SDS011;56108;48.730;9.304;2023-12-07T03:38:15;8.25;;;6.72;;
966;SDS011;56108;48.730;9.304;2023-12-07T03:40:23;11.40;;;7.35;;
966;SDS011;56108;48.730;9.304;2023-12-07T03:42:35;10.35;;;6.90;;
966;SDS011;56108;48.730;9.304;2023-12-07T03:45:00;8.88;;;7.43;;
966;SDS011;56108;48.730;9.304;2023-12-07T03:47:08;10.07;;;7.28;;
966;SDS011;56108;48.730;9.304;2023-12-07T03:49:17;8.80;;;6.28;;
966;SDS011;56108;48.730;9.304;2023-12-07T03:51:25;9.57;;;6.60;;
966;SDS011;56108;48.730;9.304;2023-12-07T03:53:34;8.68;;;5.97;;
966;SDS011;56108;48.730;9.304;2023-12-07T03:55:43;10.88;;;7.20;;
966;SDS011;56108;48.730;9.304;2023-12-07T03:57:55;7.32;;;6.30;;
966;SDS011;56108;48.730;9.304;2023-12-07T04:00:05;8.38;;;6.20;;
966;SDS011;56108;48.730;9.304;2023-12-07T04:02:15;12.15;;;7.07;;
966;SDS011;56108;48.730;9.304;2023-12-07T04:04:23;7.90;;;6.82;;
966;SDS011;56108;48.730;9.304;2023-12-07T04:06:29;8.93;;;6.97;;
966;SDS011;56108;48.730;9.304;2023-12-07T04:08:37;7.40;;;5.78;;
966;SDS011;56108;48.730;9.304;2023-12-07T04:10:46;9.18;;;6.93;;
966;SDS011;56108;48.730;9.304;2023-12-07T04:12:57;12.98;;;6.63;;
966;SDS011;56108;48.730;9.304;2023-12-07T04:15:06;8.98;;;8.02;;
966;SDS011;56108;48.730;9.304;2023-12-07T04:17:15;9.13;;;6.75;;
966;SDS011;56108;48.730;9.304;2023-12-07T04:19:24;7.10;;;6.25;;
966;SDS011;56108;48.730;9.304;2023-12-07T04:21:33;8.65;;;6.13;;
966;SDS011;56108;48.730;9.304;2023-12-07T04:23:41;6.90;;;6.20;;
966;SDS011;56108;48.730;9.304;2023-12-07T04:25:50;7.18;;;6.38;;
966;SDS011;56108;48.730;9.304;2023-12-07T04:28:01;8.63;;;6.63;;
966;SDS011;56108;48.730;9.304;2023-12-07T04:30:10;9.15;;;6.53;;
966;SDS011;56108;48.730;9.304;2023-12-07T04:32:19;8.65;;;6.93;;
966;SDS011;56108;48.730;9.304;2023-12-07T04:34:26;9.23;;;6.75;;
966;SDS011;56108;48.730;9.304;2023-12-07T04:36:36;9.98;;;6.70;;
966;SDS011;56108;48.730;9.304;2023-12-07T04:38:45;11.75;;;8.38;;
966;SDS011;56108;48.730;9.304;2023-12-07T04:40:53;11.20;;;6.97;;
966;SDS011;56108;48.730;9.304;2023-12-07T04:43:04;10.90;;;7.70;;
966;SDS011;56108;48.730;9.304;2023-12-07T04:45:13;12.02;;;7.93;;
966;SDS011;56108;48.730;9.304;2023-12-07T04:47:21;9.65;;;7.28;;
966;SDS011;56108;48.730;9.304;2023-12-07T04:49:28;11.38;;;6.97;;
966;SDS011;56108;48.730;9.304;2023-12-07T04:51:36;9.38;;;7.55;;
966;SDS011;56108;48.730;9.304;2023-12-07T04:53:42;9.52;;;6.93;;
966;SDS011;56108;48.730;9.304;2023-12-07T04:55:50;14.73;;;7.88;;
966;SDS011;56108;48.730;9.304;2023-12-07T04:57:59;10.95;;;7.72;;
966;SDS011;56108;48.730;9.304;2023-12-07T05:00:10;11.77;;;8.38;;
966;SDS011;56108;48.730;9.304;2023-12-07T05:02:18;10.23;;;8.63;;
966;SDS011;56108;48.730;9.304;2023-12-07T05:04:28;7.93;;;6.97;;
966;SDS011;56108;48.730;9.304;2023-12-07T05:06:38;11.80;;;9.25;;
966;SDS011;56108;48.730;9.304;2023-12-07T05:08:46;11.55;;;8.10;;
966;SDS011;56108;48.730;9.304;2023-12-07T05:10:54;9.93;;;7.47;;
966;SDS011;56108;48.730;9.304;2023-12-07T05:13:03;13.18;;;8.50;;
966;SDS011;56108;48.730;9.304;2023-12-07T05:15:14;15.23;;;8.65;;
966;SDS011;56108;48.730;9.304;2023-12-07T05:17:22;9.30;;;7.80;;
966;SDS011;56108;48.730;9.304;2023-12-07T05:19:30;14.10;;;7.43;;
966;SDS011;56108;48.730;9.304;2023-12-07T05:21:39;10.98;;;8.35;;
966;SDS011;56108;48.730;9.304;2023-12-07T05:23:47;9.45;;;7.95;;
966;SDS011;56108;48.730;9.304;2023-12-07T05:25:56;10.00;;;8.13;;
966;SDS011;56108;48.730;9.304;2023-12-07T05:28:04;9.88;;;8.10;;
966;SDS011;56108;48.730;9.304;2023-12-07T05:30:16;10.27;;;7.07;;
966;SDS011;56108;48.730;9.304;2023-12-07T05:32:24;13.75;;;7.85;;
966;SDS011;56108;48.730;9.304;2023-12-07T05:34:33;9.20;;;7.10;;
966;SDS011;56108;48.730;9.304;2023-12-07T05:36:41;11.48;;;7.50;;
966;SDS011;56108;48.730;9.304;2023-12-07T05:38:52;7.70;;;6.95;;
966;SDS011;56108;48.730;9.304;2023-12-07T05:41:01;10.60;;;7.72;;
966;SDS011;56108;48.730;9.304;2023-12-07T05:43:08;9.07;;;7.25;;
966;SDS011;56108;48.730;9.304;2023-12-07T05:45:19;12.40;;;8.02;;
966;SDS011;56108;48.730;9.304;2023-12-07T05:47:27;18.15;;;8.68;;
966;SDS011;56108;48.730;9.304;2023-12-07T05:49:36;13.25;;;8.95;;
966;SDS011;56108;48.730;9.304;2023-12-07T05:51:44;9.13;;;7.53;;
966;SDS011;56108;48.730;9.304;2023-12-07T05:53:53;11.85;;;7.80;;
966;SDS011;56108;48.730;9.304;2023-12-07T05:56:02;13.57;;;8.75;;
966;SDS011;56108;48.730;9.304;2023-12-07T05:58:11;9.55;;;6.30;;
966;SDS011;56108;48.730;9.304;2023-12-07T06:00:22;10.55;;;8.40;;
966;SDS011;56108;48.730;9.304;2023-12-07T06:02:32;11.63;;;8.40;;
966;SDS011;56108;48.730;9.304;2023-12-07T06:04:41;10.20;;;7.30;;
966;SDS011;56108;48.730;9.304;2023-12-07T06:06:49;11.05;;;8.63;;
966;SDS011;56108;48.730;9.304;2023-12-07T06:08:57;13.52;;;7.85;;
966;SDS011;56108;48.730;9.304;2023-12-07T06:11:06;10.40;;;7.18;;
966;SDS011;56108;48.730;9.304;2023-12-07T06:13:12;13.00;;;7.90;;
966;SDS011;56108;48.730;9.304;2023-12-07T06:15:23;10.82;;;8.82;;
966;SDS011;56108;48.730;9.304;2023-12-07T06:17:33;9.60;;;7.68;;
966;SDS011;56108;48.730;9.304;2023-12-07T06:19:41;17.83;;;9.48;;
966;SDS011;56108;48.730;9.304;2023-12-07T06:21:50;14.15;;;7.60;;
966;SDS011;56108;48.730;9.304;2023-12-07T06:23:58;8.90;;;7.82;;
966;SDS011;56108;48.730;9.304;2023-12-07T06:26:07;11.27;;;8.38;;
966;SDS011;56108;48.730;9.304;2023-12-07T06:28:15;15.95;;;9.18;;
966;SDS011;56108;48.730;9.304;2023-12-07T06:30:27;15.43;;;9.60;;
966;SDS011;56108;48.730;9.304;2023-12-07T06:32:35;11.25;;;7.75;;
966;SDS011;56108;48.730;9.304;2023-12-07T06:34:44;12.38;;;9.60;;
966;SDS011;56108;48.730;9.304;2023-12-07T06:36:52;9.43;;;6.80;;
966;SDS011;56108;48.730;9.304;2023-12-07T06:39:01;11.43;;;8.05;;
966;SDS011;56108;48.730;9.304;2023-12-07T06:41:10;13.55;;;9.90;;
966;SDS011;56108;48.730;9.304;2023-12-07T06:43:16;13.25;;;7.82;;
966;SDS011;56108;48.730;9.304;2023-12-07T06:45:28;17.23;;;9.60;;
966;SDS011;56108;48.730;9.304;2023-12-07T06:47:37;11.50;;;8.15;;
966;SDS011;56108;48.730;9.304;2023-12-07T06:49:47;13.32;;;9.65;;
966;SDS011;56108;48.730;9.304;2023-12-07T06:51:57;16.30;;;8.00;;
966;SDS011;56108;48.730;9.304;2023-12-07T06:54:06;10.05;;;6.90;;
966;SDS011;56108;48.730;9.304;2023-12-07T06:56:14;11.52;;;8.52;;
966;SDS011;56108;48.730;9.304;2023-12-07T06:58:22;9.48;;;8.15;;
966;SDS011;56108;48.730;9.304;2023-12-07T07:00:34;11.77;;;9.25;;
966;SDS011;56108;48.730;9.304;2023-12-07T07:02:42;9.75;;;7.65;;
966;SDS011;56108;48.730;9.304;2023-12-07T07:04:50;14.07;;;9.18;;
966;SDS011;56108;48.730;9.304;2023-12-07T07:06:59;8.88;;;6.97;;
966;SDS011;56108;48.730;9.304;2023-12-07T07:09:08;11.73;;;8.18;;
966;SDS011;56108;48.730;9.304;2023-12-07T07:11:17;11.60;;;8.63;;
966;SDS011;56108;48.730;9.304;2023-12-07T07:13:25;13.80;;;8.50;;
966;SDS011;56108;48.730;9.304;2023-12-07T07:15:36;11.10;;;7.90;;
966;SDS011;56108;48.730;9.304;2023-12-07T07:17:45;10.40;;;7.57;;
966;SDS011;56108;48.730;9.304;2023-12-07T07:19:51;10.65;;;8.15;;
966;SDS011;56108;48.730;9.304;2023-12-07T07:22:00;8.52;;;5.50;;
966;SDS011;56108;48.730;9.304;2023-12-07T07:24:09;9.43;;;7.28;;
966;SDS011;56108;48.730;9.304;2023-12-07T07:26:18;9.55;;;7.22;;
966;SDS011;56108;48.730;9.304;2023-12-07T07:28:26;12.60;;;8.70;;
966;SDS011;56108;48.730;9.304;2023-12-07T07:30:37;10.43;;;7.40;;
966;SDS011;56108;48.730;9.304;2023-12-07T07:32:46;9.27;;;7.82;;
966;SDS011;56108;48.730;9.304;2023-12-07T07:34:55;9.82;;;6.90;;
966;SDS011;56108;48.730;9.304;2023-12-07T07:37:05;13.55;;;9.38;;
966;SDS011;56108;48.730;9.304;2023-12-07T07:39:14;10.23;;;7.03;;
966;SDS011;56108;48.730;9.304;2023-12-07T07:41:22;10.23;;;7.75;;
966;SDS011;56108;48.730;9.304;2023-12-07T07:43:31;10.70;;;7.82;;
966;SDS011;56108;48.730;9.304;2023-12-07T07:45:42;9.35;;;8.20;;
966;SDS011;56108;48.730;9.304;2023-12-07T07:47:51;7.88;;;7.10;;
966;SDS011;56108;48.730;9.304;2023-12-07T07:49:59;9.75;;;7.47;;
966;SDS011;56108;48.730;9.304;2023-12-07T07:52:10;10.27;;;6.85;;
966;SDS011;56108;48.730;9.304;2023-12-07T07:54:20;10.57;;;7.35;;
966;SDS011;56108;48.730;9.304;2023-12-07T07:56:29;11.75;;;7.03;;
966;SDS011;56108;48.730;9.304;2023-12-07T07:58:38;18.30;;;9.60;;
966;SDS011;56108;48.730;9.304;2023-12-07T08:00:49;10.73;;;8.15;;
966;SDS011;56108;48.730;9.304;2023-12-07T08:02:57;10.02;;;8.13;;
966;SDS011;56108;48.730;9.304;2023-12-07T08:05:06;11.32;;;7.50;;
966;SDS011;56108;48.730;9.304;2023-12-07T08:07:16;11.65;;;8.70;;
966;SDS011;56108;48.730;9.304;2023-12-07T08:09:24;10.98;;;8.20;;
966;SDS011;56108;48.730;9.304;2023-12-07T08:11:32;10.23;;;7.60;;
966;SDS011;56108;48.730;9.304;2023-12-07T08:13:41;14.77;;;8.55;;
966;SDS011;56108;48.730;9.304;2023-12-07T08:15:52;13.98;;;9.02;;
966;SDS011;56108;48.730;9.304;2023-12-07T08:18:02;11.43;;;8.23;;
966;SDS011;56108;48.730;9.304;2023-12-07T08:20:11;13.55;;;9.27;;
966;SDS011;56108;48.730;9.304;2023-12-07T08:22:20;13.25;;;8.65;;
966;SDS011;56108;48.730;9.304;2023-12-07T08:24:26;13.20;;;8.38;;
966;SDS011;56108;48.730;9.304;2023-12-07T08:26:34;11.07;;;9.07;;
966;SDS011;56108;48.730;9.304;2023-12-07T08:28:43;18.00;;;10.10;;
966;SDS011;56108;48.730;9.304;2023-12-07T08:30:54;14.27;;;9.10;;
966;SDS011;56108;48.730;9.304;2023-12-07T08:33:03;15.45;;;9.20;;
966;SDS011;56108;48.730;9.304;2023-12-07T08:35:11;11.43;;;9.02;;
966;SDS011;56108;48.730;9.304;2023-12-07T08:37:19;10.77;;;7.47;;
966;SDS011;56108;48.730;9.304;2023-12-07T08:39:28;11.75;;;8.27;;
966;SDS011;56108;48.730;9.304;2023-12-07T08:41:37;11.68;;;8.85;;
966;SDS011;56108;48.730;9.304;2023-12-07T08:43:45;9.82;;;7.38;;
966;SDS011;56108;48.730;9.304;2023-12-07T08:45:57;9.25;;;7.95;;
966;SDS011;56108;48.730;9.304;2023-12-07T08:48:05;12.32;;;8.05;;
966;SDS011;56108;48.730;9.304;2023-12-07T08:50:14;13.50;;;9.90;;
966;SDS011;56108;48.730;9.304;2023-12-07T08:52:22;11.85;;;9.15;;
966;SDS011;56108;48.730;9.304;2023-12-07T08:54:46;9.77;;;7.70;;
966;SDS011;56108;48.730;9.304;2023-12-07T08:56:54;10.75;;;9.65;;
966;SDS011;56108;48.730;9.304;2023-12-07T08:59:03;14.00;;;9.82;;
966;SDS011;56108;48.730;9.304;2023-12-07T09:01:14;13.55;;;10.88;;
966;SDS011;56108;48.730;9.304;2023-12-07T09:03:33;9.38;;;8.43;;
966;SDS011;56108;48.730;9.304;2023-12-07T09:05:42;10.73;;;9.15;;
966;SDS011;56108;48.730;9.304;2023-12-07T09:07:50;13.52;;;10.18;;
966;SDS011;56108;48.730;9.304;2023-12-07T09:09:57;12.25;;;10.10;;
966;SDS011;56108;48.730;9.304;2023-12-07T09:12:06;23.23;;;15.75;;
966;SDS011;56108;48.730;9.304;2023-12-07T09:14:14;26.77;;;20.60;;
966;SDS011;56108;48.730;9.304;2023-12-07T09:16:26;29.73;;;21.63;;
966;SDS011;56108;48.730;9.304;2023-12-07T09:18:34;25.75;;;20.13;;
966;SDS011;56108;48.730;9.304;2023-12-07T09:20:43;18.67;;;14.23;;
966;SDS011;56108;48.730;9.304;2023-12-07T09:22:51;14.60;;;11.23;;
966;SDS011;56108;48.730;9.304;2023-12-07T09:25:02;11.20;;;8.82;;
966;SDS011;56108;48.730;9.304;2023-12-07T09:27:10;9.75;;;6.95;;
966;SDS011;56108;48.730;9.304;2023-12-07T09:29:19;11.20;;;8.45;;
966;SDS011;56108;48.730;9.304;2023-12-07T09:31:30;9.48;;;7.88;;
966;SDS011;56108;48.730;9.304;2023-12-07T09:33:38;8.80;;;7.90;;
966;SDS011;56108;48.730;9.304;2023-12-07T09:35:47;10.93;;;8.02;;
966;SDS011;56108;48.730;9.304;2023-12-07T09:37:56;8.48;;;7.32;;
966;SDS011;56108;48.730;9.304;2023-12-07T09:40:05;9.00;;;7.07;;
966;SDS011;56108;48.730;9.304;2023-12-07T09:42:12;9.32;;;7.28;;
966;SDS011;56108;48.730;9.304;2023-12-07T09:44:26;7.35;;;6.43;;
966;SDS011;56108;48.730;9.304;2023-12-07T09:46:37;9.70;;;7.70;;
966;SDS011;56108;48.730;9.304;2023-12-07T09:48:45;9.10;;;7.07;;
966;SDS011;56108;48.730;9.304;2023-12-07T09:50:57;12.00;;;8.20;;
966;SDS011;56108;48.730;9.304;2023-12-07T09:53:08;7.80;;;6.90;;
966;SDS011;56108;48.730;9.304;2023-12-07T09:55:17;10.13;;;6.65;;
966;SDS011;56108;48.730;9.304;2023-12-07T09:57:27;10.77;;;8.00;;
966;SDS011;56108;48.730;9.304;2023-12-07T09:59:36;10.02;;;7.70;;
966;SDS011;56108;48.730;9.304;2023-12-07T10:01:47;10.35;;;8.65;;
966;SDS011;56108;48.730;9.304;2023-12-07T10:06:28;7.78;;;6.80;;
966;SDS011;56108;48.730;9.304;2023-12-07T10:08:51;6.97;;;6.32;;
966;SDS011;56108;48.730;9.304;2023-12-07T10:11:23;7.32;;;6.30;;
966;SDS011;56108;48.730;9.304;2023-12-07T10:13:32;9.00;;;6.80;;
966;SDS011;56108;48.730;9.304;2023-12-07T10:15:42;10.20;;;7.65;;
966;SDS011;56108;48.730;9.304;2023-12-07T10:17:52;9.30;;;6.45;;
966;SDS011;56108;48.730;9.304;2023-12-07T10:20:06;8.68;;;6.63;;
966;SDS011;56108;48.730;9.304;2023-12-07T10:22:17;7.53;;;6.25;;
966;SDS011;56108;48.730;9.304;2023-12-07T10:24:26;8.80;;;7.30;;
966;SDS011;56108;48.730;9.304;2023-12-07T10:26:35;11.48;;;7.35;;
966;SDS011;56108;48.730;9.304;2023-12-07T10:28:48;14.52;;;7.38;;
966;SDS011;56108;48.730;9.304;2023-12-07T10:31:00;7.70;;;6.88;;
966;SDS011;56108;48.730;9.304;2023-12-07T10:33:11;9.38;;;6.75;;
966;SDS011;56108;48.730;9.304;2023-12-07T10:35:18;10.02;;;6.25;;
966;SDS011;56108;48.730;9.304;2023-12-07T10:37:27;7.80;;;6.30;;
966;SDS011;56108;48.730;9.304;2023-12-07T10:39:35;11.43;;;8.27;;
966;SDS011;56108;48.730;9.304;2023-12-07T10:41:44;9.25;;;6.45;;
966;SDS011;56108;48.730;9.304;2023-12-07T10:43:57;9.60;;;7.35;;
966;SDS011;56108;48.730;9.304;2023-12-07T10:46:07;10.40;;;6.72;;
966;SDS011;56108;48.730;9.304;2023-12-07T10:48:20;14.30;;;7.60;;
966;SDS011;56108;48.730;9.304;2023-12-07T10:50:29;12.02;;;7.93;;
966;SDS011;56108;48.730;9.304;2023-12-07T10:52:44;8.50;;;5.95;;
966;SDS011;56108;48.730;9.304;2023-12-07T10:54:54;9.10;;;7.47;;
966;SDS011;56108;48.730;9.304;2023-12-07T10:57:07;10.05;;;7.47;;
966;SDS011;56108;48.730;9.304;2023-12-07T10:59:18;10.05;;;7.28;;
966;SDS011;56108;48.730;9.304;2023-12-07T11:01:36;13.63;;;8.23;;
966;SDS011;56108;48.730;9.304;2023-12-07T11:03:46;11.07;;;7.18;;
966;SDS011;56108;48.730;9.304;2023-12-07T11:05:57;12.18;;;7.70;;
966;SDS011;56108;48.730;9.304;2023-12-07T11:08:05;11.18;;;7.57;;
966;SDS011;56108;48.730;9.304;2023-12-07T11:10:18;8.63;;;6.45;;
966;SDS011;56108;48.730;9.304;2023-12-07T11:12:33;8.43;;;6.57;;
966;SDS011;56108;48.730;9.304;2023-12-07T11:14:51;10.35;;;7.13;;
966;SDS011;56108;48.730;9.304;2023-12-07T11:17:00;9.30;;;7.97;;
966;SDS011;56108;48.730;9.304;2023-12-07T11:21:52;11.95;;;8.40;;
966;SDS011;56108;48.730;9.304;2023-12-07T11:24:00;10.98;;;6.88;;
966;SDS011;56108;48.730;9.304;2023-12-07T11:26:09;11.05;;;7.60;;
966;SDS011;56108;48.730;9.304;2023-12-07T11:28:17;8.30;;;6.60;;
966;SDS011;56108;48.730;9.304;2023-12-07T11:30:27;9.00;;;6.60;;
966;SDS011;56108;48.730;9.304;2023-12-07T11:32:33;11.20;;;8.00;;
966;SDS011;56108;48.730;9.304;2023-12-07T11:34:42;10.32;;;6.80;;
966;SDS011;56108;48.730;9.304;2023-12-07T11:36:54;9.20;;;7.45;;
966;SDS011;56108;48.730;9.304;2023-12-07T11:39:15;8.18;;;6.13;;
966;SDS011;56108;48.730;9.304;2023-12-07T11:41:34;6.75;;;5.90;;
966;SDS011;56108;48.730;9.304;2023-12-07T11:43:42;8.60;;;7.65;;
966;SDS011;56108;48.730;9.304;2023-12-07T11:45:51;12.30;;;7.20;;
966;SDS011;56108;48.730;9.304;2023-12-07T11:48:07;7.65;;;6.55;;
966;SDS011;56108;48.730;9.304;2023-12-07T11:50:21;8.43;;;5.80;;
966;SDS011;56108;48.730;9.304;2023-12-07T11:52:32;9.52;;;7.00;;
966;SDS011;56108;48.730;9.304;2023-12-07T11:54:40;9.63;;;6.57;;
966;SDS011;56108;48.730;9.304;2023-12-07T11:56:52;11.95;;;6.05;;
966;SDS011;56108;48.730;9.304;2023-12-07T11:59:01;14.45;;;7.97;;
966;SDS011;56108;48.730;9.304;2023-12-07T12:01:09;8.80;;;5.80;;
966;SDS011;56108;48.730;9.304;2023-12-07T12:03:18;8.38;;;6.80;;
966;SDS011;56108;48.730;9.304;2023-12-07T12:05:24;10.00;;;6.50;;
966;SDS011;56108;48.730;9.304;2023-12-07T12:07:35;8.75;;;5.85;;
966;SDS011;56108;48.730;9.304;2023-12-07T12:09:44;13.50;;;7.07;;
966;SDS011;56108;48.730;9.304;2023-12-07T12:11:53;8.18;;;6.07;;
966;SDS011;56108;48.730;9.304;2023-12-07T12:14:05;8.48;;;5.57;;
966;SDS011;56108;48.730;9.304;2023-12-07T12:16:14;6.63;;;5.97;;
966;SDS011;56108;48.730;9.304;2023-12-07T12:18:23;8.25;;;6.40;;
966;SDS011;56108;48.730;9.304;2023-12-07T12:20:32;5.93;;;4.63;;
966;SDS011;56108;48.730;9.304;2023-12-07T12:22:43;6.32;;;5.03;;
966;SDS011;56108;48.730;9.304;2023-12-07T12:24:51;9.15;;;6.50;;
966;SDS011;56108;48.730;9.304;2023-12-07T12:27:00;5.90;;;4.95;;
966;SDS011;56108;48.730;9.304;2023-12-07T12:29:10;6.05;;;5.45;;
966;SDS011;56108;48.730;9.304;2023-12-07T12:31:31;8.10;;;5.53;;
966;SDS011;56108;48.730;9.304;2023-12-07T12:33:40;5.63;;;5.05;;
966;SDS011;56108;48.730;9.304;2023-12-07T12:35:59;4.93;;;4.43;;
966;SDS011;56108;48.730;9.304;2023-12-07T12:38:14;6.43;;;5.68;;
966;SDS011;56108;48.730;9.304;2023-12-07T12:40:38;9.48;;;5.60;;
966;SDS011;56108;48.730;9.304;2023-12-07T12:42:47;9.38;;;6.93;;
966;SDS011;56108;48.730;9.304;2023-12-07T12:44:59;6.03;;;5.10;;
966;SDS011;56108;48.730;9.304;2023-12-07T12:47:11;7.18;;;5.50;;
966;SDS011;56108;48.730;9.304;2023-12-07T12:49:20;7.28;;;4.93;;
966;SDS011;56108;48.730;9.304;2023-12-07T12:51:29;7.78;;;5.60;;
966;SDS011;56108;48.730;9.304;2023-12-07T12:53:47;9.57;;;4.72;;
966;SDS011;56108;48.730;9.304;2023-12-07T12:55:55;5.57;;;5.00;;
966;SDS011;56108;48.730;9.304;2023-12-07T12:58:04;8.18;;;6.25;;
966;SDS011;56108;48.730;9.304;2023-12-07T13:00:14;9.25;;;5.15;;
966;SDS011;56108;48.730;9.304;2023-12-07T13:02:24;6.28;;;5.68;;
966;SDS011;56108;48.730;9.304;2023-12-07T13:04:34;7.95;;;6.30;;
966;SDS011;56108;48.730;9.304;2023-12-07T13:06:46;5.50;;;5.00;;
966;SDS011;56108;48.730;9.304;2023-12-07T13:08:57;7.65;;;5.38;;
966;SDS011;56108;48.730;9.304;2023-12-07T13:11:05;9.13;;;5.35;;
966;SDS011;56108;48.730;9.304;2023-12-07T13:13:14;5.05;;;4.63;;
966;SDS011;56108;48.730;9.304;2023-12-07T13:15:22;6.07;;;5.13;;
966;SDS011;56108;48.730;9.304;2023-12-07T13:17:31;6.97;;;4.60;;
966;SDS011;56108;48.730;9.304;2023-12-07T13:19:41;7.93;;;5.00;;
966;SDS011;56108;48.730;9.304;2023-12-07T13:21:49;5.63;;;4.82;;
966;SDS011;56108;48.730;9.304;2023-12-07T13:24:00;6.13;;;4.30;;
966;SDS011;56108;48.730;9.304;2023-12-07T13:26:11;5.93;;;4.10;;